Time;durP1;ratioP1;P1;durP2;ratioP2;P2;SDS_P1;SDS_P2;PMS_P1;PMS_P2;Temp;Humidity;BMP_temperature;BMP_pressure;BME280_temperature;BME280_humidity;BME280_pressure;Samples;Min_cycle;Max_cycle;Signal;HPM_P1;HPM_P2
2021/12/28 00:00:31;;;;;;;6.97;3.70;;;;;;;0.53;47.26;100142.22;3357879;29;20045;-72
2021/12/28 00:02:14;;;;;;;5.53;3.00;;;;;;;0.52;47.50;100140.56;3357340;29;20113;-74
2021/12/28 00:03:55;;;;;;;4.72;3.30;;;;;;;0.51;47.50;100150.19;3359096;29;20128;-74
2021/12/28 00:05:36;;;;;;;5.35;3.65;;;;;;;0.52;47.33;100148.41;3354677;29;20481;-74
2021/12/28 00:07:17;;;;;;;3.97;2.95;;;;;;;0.52;47.03;100149.25;3352822;29;20041;-73
2021/12/28 00:08:58;;;;;;;6.82;3.67;;;;;;;0.51;47.12;100144.94;3352199;29;20041;-72
2021/12/28 00:10:39;;;;;;;5.25;4.10;;;;;;;0.51;47.13;100149.34;3343178;29;20505;-72
2021/12/28 00:12:20;;;;;;;4.70;3.05;;;;;;;0.53;46.98;100150.06;3341192;29;20923;-74
2021/12/28 00:14:02;;;;;;;4.07;2.92;;;;;;;0.51;47.42;100147.56;3340289;29;20046;-74
2021/12/28 00:19:28;;;;;;;4.15;3.00;;;;;;;0.56;47.31;100147.22;3339002;29;20042;-72
2021/12/28 00:21:09;;;;;;;4.63;3.20;;;;;;;0.57;47.54;100154.13;3338737;29;20045;-74
2021/12/28 00:22:50;;;;;;;4.07;2.92;;;;;;;0.57;47.20;100146.28;3338822;29;20069;-71
2021/12/28 00:24:30;;;;;;;4.65;3.70;;;;;;;0.57;47.33;100147.09;3338963;29;20065;-74
2021/12/28 00:26:13;;;;;;;5.75;3.88;;;;;;;0.56;47.07;100140.16;3338876;29;20089;-74
2021/12/28 00:27:54;;;;;;;5.93;3.58;;;;;;;0.56;46.83;100136.72;3339304;29;20068;-73
2021/12/28 00:29:34;;;;;;;6.22;3.88;;;;;;;0.55;47.09;100150.78;3338673;29;20082;-72
2021/12/28 00:31:16;;;;;;;5.13;4.05;;;;;;;0.56;46.91;100148.03;3338558;29;20113;-74
2021/12/28 00:32:57;;;;;;;9.13;3.78;;;;;;;0.53;47.40;100150.06;3337811;29;20140;-75
2021/12/28 00:34:38;;;;;;;5.55;3.47;;;;;;;0.56;47.14;100142.78;3338487;29;20072;-75
2021/12/28 00:36:18;;;;;;;10.57;3.65;;;;;;;0.56;46.83;100144.59;3338550;29;20050;-74
2021/12/28 00:38:00;;;;;;;5.55;3.38;;;;;;;0.55;47.09;100145.56;3347580;29;20045;-75
2021/12/28 00:39:40;;;;;;;5.15;3.35;;;;;;;0.57;46.81;100151.53;3350820;29;20033;-73
2021/12/28 00:41:21;;;;;;;12.15;3.72;;;;;;;0.57;46.82;100146.28;3351419;29;20065;-75
2021/12/28 00:43:03;;;;;;;4.70;3.75;;;;;;;0.56;46.69;100144.59;3351622;29;20045;-73
2021/12/28 00:44:43;;;;;;;8.05;3.88;;;;;;;0.58;46.97;100145.31;3351200;29;20060;-74
2021/12/28 00:46:24;;;;;;;5.60;3.72;;;;;;;0.59;46.77;100146.97;3350111;29;20046;-72
2021/12/28 00:48:05;;;;;;;9.32;3.83;;;;;;;0.57;47.04;100136.63;3337471;29;20106;-76
2021/12/28 00:49:46;;;;;;;4.82;3.53;;;;;;;0.58;46.70;100140.88;3338311;29;20042;-74
2021/12/28 00:51:27;;;;;;;4.40;3.25;;;;;;;0.59;46.78;100139.09;3338387;29;20077;-75
2021/12/28 00:53:08;;;;;;;4.15;3.45;;;;;;;0.60;47.00;100138.16;3338649;29;20046;-76
2021/12/28 00:54:48;;;;;;;8.90;4.30;;;;;;;0.60;46.89;100143.41;3338547;29;20046;-74
2021/12/28 00:56:29;;;;;;;4.60;3.20;;;;;;;0.60;46.63;100138.16;3349277;29;20083;-75
2021/12/28 00:58:10;;;;;;;5.07;3.28;;;;;;;0.59;46.67;100139.09;3345091;29;20505;-74
2021/12/28 00:59:50;;;;;;;5.50;3.95;;;;;;;0.59;46.83;100139.09;3351346;29;20101;-73
2021/12/28 01:01:31;;;;;;;6.40;3.72;;;;;;;0.60;46.92;100140.78;3352501;29;20080;-74
2021/12/28 01:03:13;;;;;;;4.45;2.70;;;;;;;0.61;46.75;100145.91;3351667;29;20042;-75
2021/12/28 01:04:54;;;;;;;5.78;3.97;;;;;;;0.62;46.83;100146.72;3351836;29;20395;-73
2021/12/28 01:06:34;;;;;;;4.00;2.97;;;;;;;0.60;46.70;100146.84;3352227;29;20049;-75
2021/12/28 01:08:16;;;;;;;3.90;3.20;;;;;;;0.63;46.67;100143.16;3352707;29;20074;-73
2021/12/28 01:09:56;;;;;;;5.38;3.17;;;;;;;0.63;46.55;100148.41;3341930;29;20045;-76
2021/12/28 01:11:37;;;;;;;4.95;3.00;;;;;;;0.60;46.82;100146.84;3338898;29;20135;-76
2021/12/28 01:13:19;;;;;;;4.10;3.47;;;;;;;0.64;46.51;100153.50;3338256;29;20042;-76
2021/12/28 01:15:00;;;;;;;5.82;3.45;;;;;;;0.63;46.53;100156.28;3338949;29;20050;-75
2021/12/28 01:16:40;;;;;;;3.85;2.70;;;;;;;0.60;46.81;100157.34;3338162;29;20109;-74
2021/12/28 01:18:22;;;;;;;4.88;3.40;;;;;;;0.57;46.61;100167.25;3338136;29;20046;-75
2021/12/28 01:20:05;;;;;;;9.15;3.53;;;;;;;0.54;46.68;100159.59;3337884;29;20528;-74
2021/12/28 01:21:46;;;;;;;4.13;3.55;;;;;;;0.55;46.60;100166.53;3337840;29;20042;-74
2021/12/28 01:23:27;;;;;;;5.82;3.47;;;;;;;0.52;46.70;100166.78;3338205;29;20430;-72
2021/12/28 01:25:09;;;;;;;4.60;4.13;;;;;;;0.50;46.40;100169.50;3336951;29;20506;-69
2021/12/28 01:26:49;;;;;;;;;;;;;;;0.59;46.48;100170.56;3338191;29;20050;-73
2021/12/28 01:28:30;;;;;;;5.95;3.58;;;;;;;0.51;46.05;100168.53;3337918;29;19924;-73
2021/12/28 01:30:12;;;;;;;6.70;3.58;;;;;;;0.48;45.92;100170.56;3338367;29;20041;-74
2021/12/28 01:31:53;;;;;;;5.05;3.42;;;;;;;0.41;46.21;100168.44;3338030;29;20069;-72
2021/12/28 01:33:34;;;;;;;5.15;3.50;;;;;;;0.40;46.23;100174.59;3338026;29;20041;-73
2021/12/28 01:35:15;;;;;;;6.07;3.55;;;;;;;0.37;46.33;100169.59;3337631;29;20082;-72
2021/12/28 01:36:56;;;;;;;6.73;3.73;;;;;;;0.36;46.30;100178.44;3337961;29;20056;-75
2021/12/28 01:38:36;;;;;;;5.75;3.40;;;;;;;0.35;46.46;100183.78;3337678;29;20287;-74
2021/12/28 01:40:22;;;;;;;6.20;3.75;;;;;;;0.34;46.52;100188.19;3346457;29;20094;-72
2021/12/28 01:42:05;;;;;;;6.88;3.08;;;;;;;0.32;46.60;100187.47;3350515;29;20045;-74
2021/12/28 01:43:47;;;;;;;7.72;3.88;;;;;;;0.34;46.45;100185.56;3350527;29;20042;-71
2021/12/28 01:45:37;;;;;;;8.75;3.85;;;;;;;0.37;46.62;100187.97;3350881;29;20140;-75
2021/12/28 01:47:18;;;;;;;6.13;3.83;;;;;;;0.37;46.17;100192.38;3350897;29;20046;-74
2021/12/28 01:48:59;;;;;;;6.28;3.97;;;;;;;0.35;46.73;100186.41;3350473;29;20047;-72
2021/12/28 01:50:40;;;;;;;6.35;3.85;;;;;;;0.36;46.42;100190.69;3338277;29;20049;-72
2021/12/28 01:52:21;;;;;;;6.68;3.30;;;;;;;0.36;46.63;100194.16;3336982;29;20046;-74
2021/12/28 01:54:03;;;;;;;6.03;4.45;;;;;;;0.34;46.43;100187.38;3337511;29;20416;-74
2021/12/28 01:55:49;;;;;;;4.72;3.72;;;;;;;0.35;46.79;100189.84;3337508;29;20046;-74
2021/12/28 01:57:30;;;;;;;5.35;3.75;;;;;;;0.36;46.77;100190.69;3337470;29;20414;-76
2021/12/28 01:59:13;;;;;;;4.55;3.85;;;;;;;0.38;46.75;100197.47;3337420;29;20041;-73
2021/12/28 02:00:55;;;;;;;7.78;4.00;;;;;;;0.38;46.80;100192.25;3350120;29;20118;-73
2021/12/28 02:02:36;;;;;;;6.97;4.07;;;;;;;0.40;46.76;100195.59;3350329;29;20045;-75
2021/12/28 02:04:23;;;;;;;6.72;3.58;;;;;;;0.42;46.80;100198.94;3350380;29;20136;-72
2021/12/28 02:06:05;;;;;;;6.55;4.22;;;;;;;0.41;46.77;100201.66;3350142;29;20391;-73
2021/12/28 02:07:46;;;;;;;6.07;3.38;;;;;;;0.40;46.79;100206.06;3349115;29;20064;-73
2021/12/28 02:09:26;;;;;;;6.40;3.38;;;;;;;0.40;46.67;100200.81;3346245;29;20497;-74
2021/12/28 02:11:08;;;;;;;10.25;3.88;;;;;;;0.38;46.53;100202.72;3339507;29;20049;-75
2021/12/28 02:12:49;;;;;;;6.57;3.83;;;;;;;0.38;46.74;100202.72;3337766;29;20139;-74
2021/12/28 02:14:30;;;;;;;7.50;4.53;;;;;;;0.39;46.88;100207.03;3338252;29;20049;-76
2021/12/28 02:16:10;;;;;;;9.98;4.47;;;;;;;0.38;46.66;100201.91;3337910;29;20056;-73
2021/12/28 02:17:51;;;;;;;5.85;3.60;;;;;;;0.38;46.77;100205.34;3337203;29;20041;-74
2021/12/28 02:19:32;;;;;;;5.40;3.72;;;;;;;0.40;46.76;100211.31;3339881;29;20541;-73
2021/12/28 02:21:13;;;;;;;4.65;3.97;;;;;;;0.43;46.99;100213.69;3349686;29;20053;-72
2021/12/28 02:22:54;;;;;;;8.20;4.70;;;;;;;0.45;47.00;100207.53;3349350;29;20053;-74
2021/12/28 02:24:34;;;;;;;5.40;3.92;;;;;;;0.47;46.87;100218.72;3349754;29;20049;-74
2021/12/28 02:26:15;;;;;;;7.88;4.22;;;;;;;0.47;46.79;100218.72;3349856;29;20056;-75
2021/12/28 02:27:56;;;;;;;6.72;4.00;;;;;;;0.48;47.02;100213.34;3350079;29;20057;-72
2021/12/28 02:29:36;;;;;;;5.68;4.00;;;;;;;0.50;47.00;100221.13;3349303;29;20045;-71
2021/12/28 02:31:17;;;;;;;6.03;3.88;;;;;;;0.49;46.91;100215.03;3350248;29;20059;-73
2021/12/28 02:32:58;;;;;;;6.45;4.45;;;;;;;0.51;46.88;100220.16;3349734;29;20501;-75
2021/12/28 02:34:39;;;;;;;7.38;4.70;;;;;;;0.51;46.47;100214.91;3348848;29;20493;-74
2021/12/28 02:36:21;;;;;;;9.48;5.20;;;;;;;0.52;46.68;100213.97;3349779;29;20065;-73
2021/12/28 02:38:03;;;;;;;6.95;4.32;;;;;;;0.51;46.99;100223.59;3350186;29;20080;-73
2021/12/28 02:39:45;;;;;;;9.05;4.72;;;;;;;0.52;46.96;100229.72;3350274;29;20049;-72
2021/12/28 02:41:26;;;;;;;6.22;4.35;;;;;;;0.49;46.85;100227.28;3350720;29;20045;-74
2021/12/28 02:43:09;;;;;;;6.88;4.53;;;;;;;0.47;46.95;100221.34;3350313;29;20048;-73
2021/12/28 02:45:20;;;;;;;9.70;6.00;;;;;;;0.51;46.71;100222.78;3349720;29;20515;-72
2021/12/28 02:47:00;;;;;;;8.63;5.40;;;;;;;0.46;46.90;100224.91;3347553;29;20131;-75
2021/12/28 02:48:42;;;;;;;5.57;4.30;;;;;;;0.44;46.88;100227.66;3349474;29;20042;-72
2021/12/28 02:50:36;;;;;;;5.30;3.67;;;;;;;0.43;47.17;100229.44;3347966;29;20413;-72
2021/12/28 02:52:17;;;;;;;5.82;4.45;;;;;;;0.38;46.94;100221.06;3349843;29;20057;-71
2021/12/28 02:53:57;;;;;;;6.78;4.03;;;;;;;0.38;46.66;100234.19;3349945;29;20485;-72
2021/12/28 02:55:39;;;;;;;5.82;3.83;;;;;;;0.36;47.00;100225.63;3349542;29;20072;-71
2021/12/28 02:57:20;;;;;;;5.88;4.28;;;;;;;0.33;46.65;100236.31;3349886;29;20056;-72
2021/12/28 02:59:02;;;;;;;7.25;3.83;;;;;;;0.31;46.83;100233.00;3348629;29;20061;-71
2021/12/28 03:00:49;;;;;;;7.03;4.25;;;;;;;0.33;46.72;100240.72;3342100;29;20049;-74
2021/12/28 03:02:29;;;;;;;6.55;4.47;;;;;;;0.26;46.83;100243.00;3337202;29;20542;-71
2021/12/28 03:04:10;;;;;;;7.82;4.13;;;;;;;0.26;46.84;100236.91;3340072;29;20041;-72
2021/12/28 03:05:53;;;;;;;5.38;3.42;;;;;;;0.24;46.94;100242.28;3349158;29;20045;-73
2021/12/28 03:07:34;;;;;;;4.65;4.07;;;;;;;0.21;46.68;100240.72;3349616;29;20098;-72
2021/12/28 03:09:18;;;;;;;7.00;4.63;;;;;;;0.20;46.67;100240.81;3349543;29;20128;-73
2021/12/28 03:11:01;;;;;;;6.90;3.63;;;;;;;0.17;46.62;100246.28;3349648;29;20072;-75
2021/12/28 03:12:41;;;;;;;6.07;4.00;;;;;;;0.14;46.89;100239.50;3344726;29;20030;-76
2021/12/28 03:14:22;;;;;;;6.07;3.55;;;;;;;0.14;46.79;100249.97;3336073;29;20203;-76
2021/12/28 03:16:04;;;;;;;7.50;4.20;;;;;;;0.12;46.45;100249.25;3336705;29;20054;-75
2021/12/28 03:17:45;;;;;;;5.30;3.70;;;;;;;0.14;46.73;100241.28;3348570;29;20532;-73
2021/12/28 03:19:25;;;;;;;5.72;3.70;;;;;;;0.13;46.87;100247.47;3340768;29;20050;-76
2021/12/28 03:21:08;;;;;;;8.27;4.05;;;;;;;0.13;46.38;100250.94;3339392;29;20502;-75
2021/12/28 03:22:49;;;;;;;5.65;3.67;;;;;;;0.13;46.43;100239.59;3355876;29;20036;-74
2021/12/28 03:24:29;;;;;;;6.55;3.30;;;;;;;0.13;46.60;100250.06;3354445;29;20041;-74
2021/12/28 03:26:11;;;;;;;6.38;4.35;;;;;;;0.09;46.37;100249.47;3351848;29;20045;-74
2021/12/28 03:27:52;;;;;;;6.35;3.35;;;;;;;0.06;46.52;100251.50;3352155;29;20490;-74
2021/12/28 03:29:32;;;;;;;4.95;3.15;;;;;;;0.07;46.65;100255.78;3352104;29;20052;-74
2021/12/28 03:31:15;;;;;;;5.53;3.15;;;;;;;0.06;46.46;100246.25;3351828;29;20513;-70
2021/12/28 03:32:56;;;;;;;7.45;2.75;;;;;;;0.04;46.50;100256.84;3347993;29;20524;-71
2021/12/28 03:34:37;;;;;;;4.47;2.95;;;;;;;0.05;46.53;100252.44;3339031;29;21126;-73
2021/12/28 03:36:19;;;;;;;4.72;2.97;;;;;;;0.06;46.41;100254.13;3338912;29;20057;-73
2021/12/28 03:38:00;;;;;;;6.05;3.72;;;;;;;0.00;46.38;100252.78;3339520;29;20042;-75
2021/12/28 03:39:41;;;;;;;5.25;3.17;;;;;;;0.03;46.38;100254.31;3339052;29;20389;-74
2021/12/28 03:41:23;;;;;;;7.60;3.65;;;;;;;0.01;46.35;100253.63;3350871;29;20061;-76
2021/12/28 03:43:04;;;;;;;6.35;3.35;;;;;;;0.02;46.56;100247.41;3344339;29;20497;-77
2021/12/28 03:44:45;;;;;;;6.18;3.55;;;;;;;0.01;46.44;100253.63;3351588;29;20064;-74
2021/12/28 03:46:27;;;;;;;6.13;3.38;;;;;;;0.01;46.30;100251.00;3351834;29;20077;-74
2021/12/28 03:48:07;;;;;;;5.90;3.20;;;;;;;0.02;46.28;100253.50;3351973;29;20072;-77
2021/12/28 03:49:48;;;;;;;5.65;2.75;;;;;;;0.03;46.41;100249.09;3351667;29;20049;-72
2021/12/28 03:51:29;;;;;;;6.80;3.75;;;;;;;0.04;46.46;100256.00;3347591;29;20510;-74
2021/12/28 03:53:11;;;;;;;7.63;3.25;;;;;;;0.03;46.55;100252.56;3339103;29;20126;-76
2021/12/28 03:54:52;;;;;;;3.78;3.03;;;;;;;0.02;46.30;100252.66;3339199;29;20049;-75
2021/12/28 03:56:32;;;;;;;7.55;3.65;;;;;;;0.02;46.31;100257.91;3339109;29;21097;-72
2021/12/28 03:58:14;;;;;;;4.85;3.30;;;;;;;0.00;46.16;100258.03;3338941;29;20575;-75
2021/12/28 03:59:54;;;;;;;6.90;2.97;;;;;;;0.00;46.34;100260.66;3339206;29;20102;-71
2021/12/28 04:01:35;;;;;;;9.77;3.25;;;;;;;-0.01;46.51;100262.41;3340039;29;20045;-71
2021/12/28 04:03:16;;;;;;;4.50;3.00;;;;;;;-0.05;46.36;100260.97;3347408;29;20052;-73
2021/12/28 04:04:57;;;;;;;5.72;3.85;;;;;;;-0.04;46.47;100254.78;3351826;29;20136;-72
2021/12/28 04:06:37;;;;;;;4.05;3.15;;;;;;;-0.04;46.41;100269.69;3351250;29;20461;-74
2021/12/28 04:08:22;;;;;;;4.25;3.13;;;;;;;-0.05;46.26;100260.97;3351387;29;20155;-75
2021/12/28 04:10:04;;;;;;;6.70;3.42;;;;;;;-0.06;46.04;100259.28;3351635;29;20049;-73
2021/12/28 04:11:45;;;;;;;5.50;4.10;;;;;;;-0.05;46.12;100262.78;3350740;29;20060;-74
2021/12/28 04:13:25;;;;;;;4.45;2.85;;;;;;;-0.05;46.20;100263.59;3342054;29;20042;-71
2021/12/28 04:15:09;;;;;;;3.60;2.80;;;;;;;-0.05;46.42;100268.00;3338422;29;20046;-74
2021/12/28 04:16:49;;;;;;;4.22;3.33;;;;;;;-0.05;46.28;100274.09;3338849;29;20513;-74
2021/12/28 04:18:30;;;;;;;7.32;3.20;;;;;;;-0.04;46.14;100267.88;3338677;29;20046;-74
2021/12/28 04:20:14;;;;;;;3.08;2.75;;;;;;;-0.03;46.21;100271.34;3338650;29;20073;-74
2021/12/28 04:21:54;;;;;;;5.85;3.20;;;;;;;-0.03;46.54;100268.72;3350962;29;20045;-74
2021/12/28 04:23:36;;;;;;;3.85;2.65;;;;;;;-0.03;46.31;100266.97;3342434;29;20067;-74
2021/12/28 04:25:17;;;;;;;3.90;3.08;;;;;;;-0.02;46.08;100268.63;3340711;29;20042;-76
2021/12/28 04:26:58;;;;;;;5.50;3.22;;;;;;;-0.03;46.32;100282.69;3338764;29;20054;-75
2021/12/28 04:28:39;;;;;;;8.55;3.55;;;;;;;-0.03;46.16;100268.72;3342382;29;20080;-75
2021/12/28 04:30:20;;;;;;;12.13;3.95;;;;;;;-0.04;46.13;100270.50;3346943;29;20132;-73
2021/12/28 04:32:01;;;;;;;5.32;3.17;;;;;;;-0.04;46.12;100275.75;3348507;29;20045;-71
2021/12/28 04:33:43;;;;;;;6.80;4.28;;;;;;;-0.04;46.32;100278.38;3343091;29;20189;-74
2021/12/28 04:35:23;;;;;;;5.32;4.00;;;;;;;-0.04;46.43;100273.13;3344031;29;20045;-74
2021/12/28 04:37:04;;;;;;;5.40;3.33;;;;;;;-0.03;46.37;100280.06;3345165;29;20045;-74
2021/12/28 04:38:45;;;;;;;4.72;3.28;;;;;;;-0.02;46.32;100279.09;3348169;29;20042;-75
2021/12/28 04:40:27;;;;;;;7.20;4.13;;;;;;;0.01;46.56;100278.03;3351352;29;20045;-74
2021/12/28 04:42:08;;;;;;;;;;;;;;;0.13;46.15;100286.75;3351078;29;20046;-74
2021/12/28 04:43:49;;;;;;;5.88;3.88;;;;;;;0.08;46.06;100281.03;3349704;29;19924;-74
2021/12/28 04:45:30;;;;;;;6.55;4.20;;;;;;;0.10;45.82;100281.75;3345887;29;20501;-75
2021/12/28 04:47:11;;;;;;;5.68;3.30;;;;;;;0.11;46.14;100288.69;3344623;29;20486;-75
2021/12/28 04:48:52;;;;;;;12.75;4.35;;;;;;;0.12;46.44;100279.88;3334702;29;20062;-74
2021/12/28 04:50:37;;;;;;;7.20;4.30;;;;;;;0.12;46.49;100280.69;3340321;29;20080;-72
2021/12/28 04:52:18;;;;;;;8.63;3.92;;;;;;;0.14;46.45;100284.03;3353005;29;20060;-75
2021/12/28 04:54:01;;;;;;;6.57;3.53;;;;;;;0.13;46.24;100279.75;3345179;29;20052;-73
2021/12/28 04:55:45;;;;;;;8.75;3.60;;;;;;;0.15;46.23;100285.69;3344618;29;20046;-73
2021/12/28 04:57:26;;;;;;;6.70;4.15;;;;;;;0.20;46.39;100295.84;3338181;29;20410;-73
2021/12/28 04:59:07;;;;;;;9.35;3.83;;;;;;;0.19;46.66;100287.16;3338181;29;20050;-73
2021/12/28 05:00:49;;;;;;;6.03;3.88;;;;;;;0.19;46.52;100296.81;3338307;29;20498;-73
2021/12/28 05:02:30;;;;;;;7.28;4.70;;;;;;;0.18;46.47;100297.75;3338186;29;20053;-73
2021/12/28 05:04:11;;;;;;;9.60;3.92;;;;;;;0.18;46.29;100297.75;3339059;29;20037;-72
2021/12/28 05:05:52;;;;;;;6.65;4.03;;;;;;;0.18;46.33;100303.00;3338335;29;20049;-74
2021/12/28 05:07:33;;;;;;;9.00;5.03;;;;;;;0.19;46.45;100300.28;3338442;29;20109;-74
2021/12/28 05:09:18;;;;;;;8.90;5.38;;;;;;;0.22;46.13;100309.69;3337973;29;20050;-74
2021/12/28 05:10:59;;;;;;;8.48;4.60;;;;;;;0.20;46.38;100303.72;3338177;29;20104;-72
2021/12/28 05:12:40;;;;;;;5.70;3.72;;;;;;;0.24;46.34;100314.84;3338138;29;20050;-74
2021/12/28 05:14:21;;;;;;;8.15;5.95;;;;;;;0.24;46.28;100312.22;3344032;29;20037;-73
2021/12/28 05:16:01;;;;;;;9.23;4.75;;;;;;;0.25;46.13;100314.69;3350910;29;20470;-74
2021/12/28 05:17:42;;;;;;;17.67;5.28;;;;;;;0.26;46.28;100312.91;3350837;29;20097;-71
2021/12/28 05:19:23;;;;;;;8.15;4.20;;;;;;;0.27;46.29;100312.81;3349513;29;20041;-71
2021/12/28 05:21:03;;;;;;;6.88;5.07;;;;;;;0.27;46.37;100318.06;3350188;29;20052;-72
2021/12/28 05:22:44;;;;;;;7.05;4.90;;;;;;;0.28;46.37;100324.13;3350565;29;20080;-72
2021/12/28 05:24:25;;;;;;;7.80;4.43;;;;;;;0.30;46.73;100320.44;3344292;29;20037;-71
2021/12/28 05:26:05;;;;;;;8.27;4.60;;;;;;;0.30;46.59;100320.44;3338128;29;20537;-69
2021/12/28 05:27:46;;;;;;;7.22;4.20;;;;;;;0.30;46.35;100320.44;3337862;29;20132;-69
2021/12/28 05:29:27;;;;;;;7.07;4.38;;;;;;;0.31;46.51;100330.00;3337753;29;20073;-74
2021/12/28 05:31:08;;;;;;;5.53;4.07;;;;;;;0.31;46.42;100322.13;3340892;29;20037;-72
2021/12/28 05:32:49;;;;;;;7.57;3.35;;;;;;;0.31;46.54;100326.53;3337647;29;20045;-72
2021/12/28 05:34:29;;;;;;;5.10;3.63;;;;;;;0.30;46.52;100327.47;3338677;29;20038;-73
2021/12/28 05:36:10;;;;;;;7.70;4.20;;;;;;;0.27;46.52;100323.28;3336496;29;20042;-73
2021/12/28 05:37:51;;;;;;;9.45;3.90;;;;;;;0.29;46.32;100333.69;3337220;29;20190;-72
2021/12/28 05:39:32;;;;;;;7.88;4.32;;;;;;;0.30;46.52;100333.56;3337762;29;20050;-73
2021/12/28 05:41:12;;;;;;;5.65;4.13;;;;;;;0.31;46.25;100331.75;3338310;29;20050;-72
2021/12/28 05:42:53;;;;;;;6.57;4.38;;;;;;;0.30;46.05;100336.19;3348442;29;20515;-74
2021/12/28 05:44:34;;;;;;;3.92;3.38;;;;;;;0.29;46.18;100339.75;3348861;29;20131;-71
2021/12/28 05:46:14;;;;;;;5.45;3.85;;;;;;;0.29;46.18;100336.31;3337770;29;20046;-71
2021/12/28 05:47:55;;;;;;;5.30;3.92;;;;;;;0.27;46.61;100336.41;3337595;29;20137;-69
2021/12/28 05:49:36;;;;;;;5.85;3.38;;;;;;;0.28;46.11;100343.31;3337348;29;20610;-71
2021/12/28 05:51:17;;;;;;;5.45;3.58;;;;;;;0.30;46.40;100335.34;3349644;29;20045;-71
2021/12/28 05:52:57;;;;;;;3.78;3.08;;;;;;;0.32;46.55;100333.44;3350042;29;20037;-71
2021/12/28 05:54:38;;;;;;;7.57;3.75;;;;;;;0.33;46.66;100343.81;3347103;29;20523;-73
2021/12/28 05:56:18;;;;;;;10.98;3.83;;;;;;;0.34;46.23;100342.88;3349228;29;20033;-70
2021/12/28 05:57:59;;;;;;;4.63;3.60;;;;;;;0.34;46.18;100342.88;3348808;29;20049;-71
2021/12/28 05:59:40;;;;;;;5.07;3.92;;;;;;;0.33;46.21;100346.44;3339307;29;20038;-71
2021/12/28 06:01:21;;;;;;;6.80;3.80;;;;;;;0.33;46.48;100346.44;3343360;29;20044;-73
2021/12/28 06:03:02;;;;;;;4.90;3.75;;;;;;;0.34;46.22;100348.13;3347605;29;20117;-72
2021/12/28 06:04:42;;;;;;;6.38;3.40;;;;;;;0.34;46.16;100345.50;3346705;29;20133;-72
2021/12/28 06:06:23;;;;;;;8.10;4.15;;;;;;;0.35;46.38;100343.72;3337126;29;20056;-71
2021/12/28 06:08:04;;;;;;;5.68;3.53;;;;;;;0.33;46.44;100345.59;3337346;29;20134;-72
2021/12/28 06:09:45;;;;;;;4.03;3.13;;;;;;;0.33;46.38;100341.19;3337726;29;20053;-71
2021/12/28 06:11:25;;;;;;;5.70;4.13;;;;;;;0.34;46.09;100345.50;3338221;29;20130;-71
2021/12/28 06:13:06;;;;;;;7.57;3.85;;;;;;;0.36;46.35;100348.00;3336989;29;20042;-71
2021/12/28 06:14:47;;;;;;;7.70;3.67;;;;;;;0.38;46.22;100344.31;3338086;29;20042;-70
2021/12/28 06:16:28;;;;;;;7.00;3.72;;;;;;;0.40;46.27;100345.03;3337069;29;20120;-70
2021/12/28 06:18:08;;;;;;;8.23;3.72;;;;;;;0.44;46.40;100350.91;3337214;29;20077;-70
2021/12/28 06:19:49;;;;;;;5.43;3.85;;;;;;;0.46;46.37;100345.53;3336785;29;20061;-69
2021/12/28 06:21:31;;;;;;;5.57;3.35;;;;;;;0.47;46.09;100348.06;3347272;29;20096;-70
2021/12/28 06:23:12;;;;;;;4.97;3.38;;;;;;;0.48;46.12;100344.47;3349240;29;20041;-71
2021/12/28 06:24:52;;;;;;;8.25;4.80;;;;;;;0.52;46.09;100355.59;3338592;29;20471;-70
2021/12/28 06:26:34;;;;;;;8.20;3.58;;;;;;;0.54;46.24;100348.41;3337674;29;20060;-71
2021/12/28 06:28:14;;;;;;;7.18;4.63;;;;;;;0.56;46.14;100352.59;3336548;29;20050;-70
2021/12/28 06:29:55;;;;;;;6.32;3.28;;;;;;;0.58;46.10;100347.25;3335795;29;20471;-71
2021/12/28 06:31:36;;;;;;;3.70;3.20;;;;;;;0.60;46.10;100353.22;3336667;29;20049;-71
2021/12/28 06:33:17;;;;;;;6.60;3.45;;;;;;;0.61;46.11;100363.59;3337097;29;20052;-72
2021/12/28 06:34:58;;;;;;;4.82;3.03;;;;;;;0.63;46.05;100364.31;3339299;29;20133;-71
2021/12/28 06:36:38;;;;;;;5.28;4.50;;;;;;;0.64;46.03;100354.66;3349240;29;20041;-71
2021/12/28 06:38:21;;;;;;;6.80;3.38;;;;;;;0.66;46.38;100363.25;3345261;29;20033;-73
2021/12/28 06:40:04;;;;;;;8.63;4.32;;;;;;;0.68;46.10;100369.22;3351252;29;20045;-71
2021/12/28 06:41:45;;;;;;;10.45;4.05;;;;;;;0.72;46.31;100373.28;3355058;29;20041;-72
2021/12/28 06:43:25;;;;;;;6.18;3.88;;;;;;;0.74;46.00;100368.75;3337239;29;20045;-71
2021/12/28 06:45:07;;;;;;;6.65;3.17;;;;;;;0.75;46.02;100367.81;3337051;29;20510;-72
2021/12/28 06:46:49;;;;;;;7.03;4.05;;;;;;;0.78;45.91;100370.22;3323861;29;20122;-72
2021/12/28 06:48:30;;;;;;;5.60;3.25;;;;;;;0.80;45.75;100381.44;3334169;29;20045;-71
2021/12/28 06:50:11;;;;;;;6.65;3.63;;;;;;;0.81;45.86;100377.03;3337476;29;20550;-71
2021/12/28 06:51:52;;;;;;;3.37;3.07;;;;;;;0.82;46.05;100384.75;3336933;29;20054;-72
2021/12/28 06:53:33;;;;;;;6.82;3.70;;;;;;;0.81;46.04;100390.97;3336077;29;20425;-71
2021/12/28 06:55:14;;;;;;;9.18;4.18;;;;;;;0.83;45.91;100378.56;3336488;29;20106;-72
2021/12/28 06:56:54;;;;;;;4.70;3.45;;;;;;;0.85;45.91;100379.31;3346953;29;20066;-71
2021/12/28 06:58:35;;;;;;;5.10;3.22;;;;;;;0.87;46.04;100382.63;3349337;29;20057;-71
2021/12/28 07:00:18;;;;;;;6.50;3.65;;;;;;;0.88;45.76;100383.50;3349193;29;20140;-71
2021/12/28 07:02:00;;;;;;;7.95;3.80;;;;;;;0.89;46.00;100385.16;3341105;29;20102;-71
2021/12/28 07:03:41;;;;;;;9.40;4.20;;;;;;;0.92;45.78;100384.91;3340871;29;20049;-72
2021/12/28 07:05:21;;;;;;;11.63;4.07;;;;;;;0.93;45.91;100393.63;3336786;29;20522;-71
2021/12/28 07:07:02;;;;;;;7.72;4.45;;;;;;;0.93;45.60;100389.22;3336811;29;20048;-73
2021/12/28 07:08:43;;;;;;;8.35;4.05;;;;;;;0.93;45.96;100391.84;3337902;29;20049;-72
2021/12/28 07:10:24;;;;;;;7.35;3.65;;;;;;;0.95;45.80;100400.41;3338483;29;20069;-72
2021/12/28 07:12:05;;;;;;;5.25;3.90;;;;;;;0.97;45.70;100395.91;3338450;29;20081;-72
2021/12/28 07:13:46;;;;;;;8.38;4.30;;;;;;;0.98;45.61;100388.84;3338518;29;20110;-71
2021/12/28 07:15:27;;;;;;;5.75;3.42;;;;;;;0.98;45.53;100396.72;3340814;29;20070;-71
2021/12/28 07:17:07;;;;;;;10.40;4.75;;;;;;;0.98;45.65;100397.59;3338036;29;20050;-71
2021/12/28 07:18:48;;;;;;;6.20;3.72;;;;;;;0.99;45.61;100401.03;3336682;29;20102;-72
2021/12/28 07:20:30;;;;;;;8.60;3.78;;;;;;;0.97;45.57;100395.91;3348347;29;20045;-72
2021/12/28 07:22:11;;;;;;;7.43;3.80;;;;;;;1.00;45.67;100397.47;3342680;29;20044;-72
2021/12/28 07:23:52;;;;;;;5.93;4.20;;;;;;;1.07;45.53;100409.16;3360802;29;20290;-72
2021/12/28 07:25:33;;;;;;;6.10;3.85;;;;;;;1.09;45.72;100408.09;3351439;29;20528;-72
2021/12/28 07:27:15;;;;;;;6.18;4.10;;;;;;;1.11;45.54;100408.00;3341364;29;20053;-72
2021/12/28 07:28:55;;;;;;;5.13;3.80;;;;;;;1.15;45.65;100406.81;3336396;29;20049;-71
2021/12/28 07:30:36;;;;;;;5.63;3.20;;;;;;;1.17;45.31;100404.91;3346822;29;20540;-71
2021/12/28 07:32:17;;;;;;;5.93;3.88;;;;;;;1.18;45.65;100411.81;3348951;29;20049;-72
2021/12/28 07:33:58;;;;;;;6.30;4.03;;;;;;;1.21;45.57;100416.81;3349158;29;20114;-71
2021/12/28 07:35:39;;;;;;;7.43;3.53;;;;;;;1.23;45.46;100409.66;3349034;29;20092;-72
2021/12/28 07:37:20;;;;;;;4.15;3.60;;;;;;;1.27;45.19;100415.53;3349206;29;20758;-71
2021/12/28 07:39:02;;;;;;;4.60;3.78;;;;;;;1.30;45.38;100418.75;3347823;29;20050;-71
2021/12/28 07:40:43;;;;;;;7.78;3.17;;;;;;;1.36;45.30;100416.63;3348365;29;20102;-71
2021/12/28 07:42:24;;;;;;;6.60;4.57;;;;;;;1.39;45.30;100416.38;3347438;29;20181;-71
2021/12/28 07:44:05;;;;;;;7.82;3.72;;;;;;;1.45;45.16;100423.81;3336729;29;20075;-72
2021/12/28 07:45:46;;;;;;;10.50;4.80;;;;;;;1.50;45.34;100421.66;3336483;29;20049;-71
2021/12/28 07:47:27;;;;;;;5.88;3.47;;;;;;;1.53;45.38;100419.63;3336424;29;20046;-71
2021/12/28 07:49:07;;;;;;;8.07;3.65;;;;;;;1.58;45.14;100418.44;3336921;29;20045;-70
2021/12/28 07:50:48;;;;;;;6.70;4.32;;;;;;;1.62;45.23;100425.94;3335210;29;20045;-71
2021/12/28 07:52:29;;;;;;;9.45;4.00;;;;;;;1.65;45.20;100420.47;3335882;29;20505;-71
2021/12/28 07:54:10;;;;;;;7.33;3.93;;;;;;;1.70;45.25;100414.84;3348799;29;20433;-73
2021/12/28 07:55:51;;;;;;;9.55;3.83;;;;;;;1.73;45.00;100425.16;3349274;29;20298;-72
2021/12/28 07:57:32;;;;;;;8.50;4.97;;;;;;;1.77;44.98;100420.47;3338014;29;20422;-71
2021/12/28 07:59:13;;;;;;;14.40;3.88;;;;;;;1.80;45.06;100425.47;3337176;29;20046;-72